Flight Track Log - Related Links

Times and Time Zones

All times are in EDT time to prevent confusion due to time zone crossing. See the ASQ5720 flight status page for this flight to view local times or setup timezone preferences in your user account.

Time Position Orientation Groundspeed Altitude Reporting Facility
EDT Latitude Longitude Course Direction KTS MPH feet Rate Location/Type
Thu 10:24:42 PM 38.9667 -77.5333 83° East 207 238 2,000  Level Potomac TRACON
Thu 10:25:42 PM 39.0333 -77.5167 11° North 256 295 4,200 2,350 Climbing Potomac TRACON
Thu 10:26:42 PM 39.1000 -77.4667 30° Northeast 277 319 6,700 2,400 Climbing Potomac TRACON
Thu 10:27:42 PM 39.1500 -77.3833 52° Northeast 291 335 9,000 1,700 Climbing Potomac TRACON
Thu 10:28:42 PM 39.1500 -77.2833 90° East 333 383 10,100 1,735 Climbing Potomac TRACON
Thu 10:29:00 PM 39.0000 -76.5591 90° East  Level FlightAware Approximate
Thu 10:30:00 PM 39.0141 -76.4093 83° East  Level FlightAware Approximate
Thu 10:31:06 PM 39.0400 -77.0614 122° Southeast 338 389 14,900  Level Washington Center
Thu 10:32:07 PM 38.9828 -76.9642 127° Southeast 338 389 16,600 1,041 Climbing Washington Center
Thu 10:33:07 PM 38.9444 -76.8486 113° Southeast 343 395 17,000 694 Climbing Washington Center
Thu 10:34:08 PM 38.9728 -76.7103 75° East 337 388 18,000 1,289 Climbing Washington Center
Thu 10:35:08 PM 38.9822 -76.5717 85° East 366 421 19,600 1,311 Climbing Washington Center
Thu 10:36:07 PM 38.9750 -76.4328 94° East 379 436 20,600 1,017 Climbing Washington Center
Thu 10:37:06 PM 38.9697 -76.2883 93° East 394 453 21,600 1,008 Climbing Washington Center
Thu 10:38:06 PM 38.9683 -76.1389 91° East 406 467 22,600 694 Climbing Washington Center
Thu 10:39:07 PM 38.9647 -75.9922 92° East 406 467 23,000 198 Climbing Washington Center
Thu 10:40:07 PM 38.9589 -75.8372 93° East 416 479 23,000  Level Washington Center
Thu 10:41:08 PM 38.9486 -75.6744 95° East 439 505 23,000 50 Level Washington Center
Thu 10:42:06 PM 38.9633 -75.5089 83° East 450 518 23,100 655 Climbing Washington Center
Thu 10:43:07 PM 39.0172 -75.3592 65° Northeast 449 517 24,300 1,140 Climbing Washington Center
Thu 10:44:07 PM 39.0753 -75.2225 61° Northeast 442 509 25,400 908 Climbing Washington Center
Thu 10:45:06 PM 39.1311 -75.0858 62° Northeast 431 496 26,100 605 Climbing Washington Center
Thu 10:46:06 PM 39.1886 -74.9436 62° Northeast 431 496 26,600 500 Climbing Washington Center
Thu 10:47:06 PM 39.2483 -74.8064 61° Northeast 437 503 27,100 496 Climbing Washington Center
Thu 10:48:07 PM 39.3078 -74.6636 62° Northeast 437 503 27,600 492 Climbing Washington Center
Thu 10:49:08 PM 39.3669 -74.5206 62° Northeast 437 503 28,100 496 Climbing Washington Center
Thu 10:50:08 PM 39.4261 -74.3744 62° Northeast 442 509 28,600 508 Climbing Washington Center
Thu 10:51:06 PM 39.4850 -74.2336 62° Northeast 442 509 29,100 504 Climbing Washington Center
Thu 10:52:07 PM 39.5542 -74.0925 58° Northeast 447 514 29,600 496 Climbing Washington Center
Thu 10:53:07 PM 39.6358 -73.9639 50° Northeast 452 520 30,100 503 Climbing Washington Center
Thu 10:54:54 PM 39.7736 -73.7411 51° Northeast 468 539 31,000 329 Climbing Boston Center
Thu 10:55:51 PM 39.8706 -73.6347 40° Northeast 455 524 31,000  Level Boston Center
Thu 10:56:52 PM 39.9964 -73.5422 29° Northeast 460 529 31,000  Level Boston Center
Thu 10:57:53 PM 40.1139 -73.4519 30° Northeast 466 536 31,000  Level Boston Center
Thu 10:58:53 PM 40.2169 -73.3639 33° Northeast 483 556 31,000  Level Boston Center
Thu 10:59:54 PM 40.3300 -73.2703 32° Northeast 488 562 31,000  Level Boston Center
Thu 11:00:53 PM 40.4594 -73.2311 13° North 474 545 31,000  Level Boston Center
Thu 11:01:53 PM 40.5969 -73.2300 360° North 469 540 31,000  Level Boston Center
Thu 11:02:54 PM 40.7492 -73.2319 359° North 483 556 31,000  Level Boston Center
Thu 11:03:52 PM 40.8847 -73.2308 360° North 483 556 31,000  Level Boston Center
Thu 11:04:52 PM 41.0200 -73.2269 North 483 556 31,000  Level Boston Center
Thu 11:05:53 PM 41.1578 -73.2231 North 483 556 31,000  Level Boston Center
Thu 11:06:54 PM 41.2994 -73.2192 North 493 567 31,000  Level Boston Center
Thu 11:07:53 PM 41.4350 -73.2181 360° North 498 573 31,000  Level Boston Center
Thu 11:08:54 PM 41.5683 -73.2169 360° North 486 559 31,000  Level Boston Center
Thu 11:09:52 PM 41.7081 -73.2131 North 486 559 31,000  Level Boston Center
Thu 11:10:53 PM 41.8475 -73.2119 360° North 492 566 31,000  Level Boston Center
Thu 11:11:52 PM 41.9872 -73.2081 North 497 572 31,000  Level Boston Center
Thu 11:12:52 PM 42.1269 -73.2042 North 497 572 31,000  Level Boston Center
Thu 11:13:53 PM 42.2667 -73.2031 360° North 497 572 31,000  Level Boston Center
Thu 11:14:52 PM 42.4125 -73.1908 North 510 587 31,000  Level Boston Center
Thu 11:15:52 PM 42.5542 -73.1869 North 510 587 31,000  Level Boston Center
Thu 11:16:53 PM 42.6833 -73.1942 358° North 510 587 31,000  Level Boston Center
Thu 11:17:52 PM 42.8253 -73.1903 North 510 587 31,000 -450 Level Boston Center
Thu 11:18:53 PM 42.9689 -73.1864 North 515 593 30,100 -1,765 Descending Boston Center
Thu 11:19:51 PM 43.1067 -73.1822 North 508 585 27,500 -2,521 Descending Boston Center
Thu 11:20:52 PM 43.2378 -73.1811 360° North 487 560 25,100 -1,736 Descending Boston Center
Thu 11:21:52 PM 43.3608 -73.1797 360° North 459 528 24,000 -1,636 Descending Boston Center
Thu 11:22:53 PM 43.4922 -73.1756 North 437 503 21,800 -2,350 Descending Boston Center
Thu 11:23:52 PM 43.6150 -73.1769 360° North 437 503 19,300 -2,579 Descending Boston Center
Thu 11:24:54 PM 43.7278 -73.1697 North 425 489 16,600 -2,550 Descending Boston Center
Thu 11:25:52 PM 43.8319 -73.1683 North 388 447 14,200 -2,492 Descending Boston Center
Thu 11:26:52 PM 43.9319 -73.1667 North 366 421 11,700 -1,950 Descending Boston Center
Thu 11:27:52 PM 44.0236 -73.1647 North 340 391 10,300 -1,200 Descending Boston Center
Thu 11:28:52 PM 44.1047 -73.1658 359° North 306 352 9,300 -1,050 Descending Boston Center
Thu 11:29:52 PM 44.1839 -73.1697 358° North 285 328 8,200 -1,339 Descending Boston Center
Thu 11:30:53 PM 44.2611 -73.1764 356° North 285 328 6,600 -1,488 Descending Boston Center
Thu 11:31:53 PM 44.3278 -73.1800 358° North 273 314 5,200 -1,311 Descending Boston Center
Thu 11:32:52 PM 44.4006 -73.1897 355° North 273 314 4,000 -706 Descending Boston Center
Thu 11:33:52 PM 44.4397 -73.2514 312° West 226 260 3,800 -836 Descending Boston Center
Thu 11:34:54 PM 44.4831 -73.3042 319° Northwest 207 238 2,300 -787 Descending Boston Center
Thu 11:35:54 PM 44.5308 -73.3400 332° Northwest 197 227 2,200 -50 Descending Boston Center
Thu 11:36:54 PM 44.5436 -73.2789 74° East 103 119 2,200 -350 Level Boston Center
Thu 11:37:54 PM 44.5192 -73.2292 125° Southeast 119 137 1,500 -718 Descending Boston Center
Thu 11:38:51 PM 44.4944 -73.1908 132° Southeast 144 166 800 -605 Descending Boston Center
Thu 11:39:53 PM 44.4694 -73.1528 133° Southeast 137 158 300 -484 Descending Boston Center

Login

Don't have an account? Register now (free) for customized features, flight alerts, and more!